createdAt,value
2018-03-17T00:01:50.419Z,3.90
2018-03-17T00:04:20.987Z,3.70
2018-03-17T00:06:52.286Z,2.00
2018-03-17T00:09:23.877Z,4.07
2018-03-17T00:11:59.551Z,3.67
2018-03-17T00:14:30.739Z,5.40
2018-03-17T00:17:01.525Z,5.12
2018-03-17T00:19:31.714Z,6.75
2018-03-17T00:22:02.764Z,3.87
2018-03-17T00:24:33.296Z,6.10
2018-03-17T00:27:04.221Z,2.58
2018-03-17T00:29:34.677Z,2.10
2018-03-17T00:32:04.862Z,3.72
2018-03-17T00:34:35.349Z,3.53
2018-03-17T00:37:06.190Z,3.30
2018-03-17T00:39:37.121Z,6.77
2018-03-17T00:42:08.001Z,3.20
2018-03-17T00:44:38.901Z,2.80
2018-03-17T00:47:09.443Z,2.50
2018-03-17T00:49:40.190Z,2.92
2018-03-17T00:52:11.346Z,5.18
2018-03-17T00:54:42.458Z,4.78
2018-03-17T00:57:13.570Z,7.55
2018-03-17T00:59:44.564Z,4.72
2018-03-17T01:02:15.463Z,7.62
2018-03-17T01:04:46.720Z,7.07
2018-03-17T01:07:17.742Z,6.30
2018-03-17T01:09:48.604Z,4.65
2018-03-17T01:12:19.639Z,3.45
2018-03-17T01:14:50.549Z,2.43
2018-03-17T01:17:21.433Z,2.28
2018-03-17T01:19:57.124Z,4.75
2018-03-17T01:22:28.896Z,5.50
2018-03-17T01:25:00.086Z,9.20
2018-03-17T01:27:32.108Z,5.05
2018-03-17T01:30:02.469Z,4.60
2018-03-17T01:32:32.913Z,3.25
2018-03-17T01:35:03.727Z,2.57
2018-03-17T01:37:35.471Z,2.67
2018-03-17T01:40:07.835Z,2.60
2018-03-17T01:42:39.098Z,3.55
2018-03-17T01:45:09.525Z,3.60
2018-03-17T01:47:40.122Z,2.27
2018-03-17T01:50:10.463Z,4.80
2018-03-17T01:52:42.042Z,4.00
2018-03-17T01:55:13.039Z,3.50
2018-03-17T01:57:43.942Z,5.80
2018-03-17T02:00:16.617Z,3.97
2018-03-17T02:02:47.439Z,4.80
2018-03-17T02:05:18.412Z,6.50
2018-03-17T02:07:49.620Z,5.20
2018-03-17T02:10:19.779Z,7.22
2018-03-17T02:12:49.974Z,4.15
2018-03-17T02:15:20.772Z,3.83
2018-03-17T02:17:51.277Z,2.40
2018-03-17T02:20:21.663Z,3.80
2018-03-17T02:22:52.268Z,5.90
2018-03-17T02:25:23.200Z,3.00
2018-03-17T02:27:54.115Z,3.22
2018-03-17T02:30:25.973Z,3.95
2018-03-17T02:32:56.236Z,3.08
2018-03-17T02:35:27.565Z,7.87
2018-03-17T02:37:58.155Z,5.75
2018-03-17T02:40:29.611Z,7.05
2018-03-17T02:43:01.170Z,5.72
2018-03-17T02:45:33.566Z,4.12
2018-03-17T02:48:04.599Z,4.12
2018-03-17T02:50:35.329Z,3.22
2018-03-17T02:53:07.540Z,3.30
2018-03-17T02:55:37.930Z,2.03
2018-03-17T02:58:09.131Z,2.30
2018-03-17T03:00:39.596Z,2.72
2018-03-17T03:03:10.783Z,4.87
2018-03-17T03:05:41.282Z,1.83
2018-03-17T03:08:11.966Z,1.90
2018-03-17T03:10:42.436Z,3.80
2018-03-17T03:13:12.968Z,3.75
2018-03-17T03:15:43.191Z,2.08
2018-03-17T03:18:14.484Z,3.10
2018-03-17T03:20:45.069Z,2.12
2018-03-17T03:23:15.899Z,2.12
2018-03-17T03:25:46.271Z,2.00
2018-03-17T03:28:16.958Z,3.30
2018-03-17T03:30:47.893Z,4.30
2018-03-17T03:33:18.872Z,4.80
2018-03-17T03:35:49.670Z,5.00
2018-03-17T03:38:20.626Z,6.30
2018-03-17T03:40:51.438Z,3.80
2018-03-17T03:43:22.242Z,4.90
2018-03-17T03:45:54.109Z,2.80
2018-03-17T03:48:24.633Z,4.07
2018-03-17T03:50:55.619Z,3.00
2018-03-17T03:53:26.092Z,2.40
2018-03-17T03:55:56.503Z,1.40
2018-03-17T03:58:27.055Z,2.90
2018-03-17T04:00:57.544Z,3.70
2018-03-17T04:03:28.704Z,4.30
2018-03-17T04:06:00.984Z,3.10
2018-03-17T04:08:32.977Z,5.78
2018-03-17T04:11:04.183Z,4.57
2018-03-17T04:13:34.804Z,4.85
2018-03-17T04:16:05.401Z,4.18
2018-03-17T04:18:35.815Z,5.07
2018-03-17T04:21:06.600Z,2.50
2018-03-17T04:23:37.333Z,3.00
2018-03-17T04:26:07.855Z,3.80
2018-03-17T04:28:38.860Z,4.10
2018-03-17T04:31:09.558Z,4.85
2018-03-17T04:33:40.224Z,6.50
2018-03-17T04:36:11.327Z,3.67
2018-03-17T04:38:41.679Z,3.33
2018-03-17T04:41:11.993Z,5.50
2018-03-17T04:43:42.589Z,4.97
2018-03-17T04:46:13.056Z,5.07
2018-03-17T04:48:51.913Z,7.60
2018-03-17T04:51:23.145Z,4.70
2018-03-17T04:53:54.413Z,3.13
2018-03-17T04:56:29.964Z,4.65
2018-03-17T04:59:02.571Z,2.20
2018-03-17T05:01:33.482Z,5.05
2018-03-17T05:04:04.676Z,3.80
2018-03-17T05:06:35.977Z,4.30
2018-03-17T05:09:07.116Z,8.30
2018-03-17T05:11:37.769Z,5.95
2018-03-17T05:14:08.258Z,7.05
2018-03-17T05:16:38.418Z,5.30
2018-03-17T05:19:09.271Z,7.10
2018-03-17T05:21:39.707Z,4.47
2018-03-17T05:24:10.167Z,5.03
2018-03-17T05:26:44.138Z,7.15
2018-03-17T05:29:16.039Z,3.10
2018-03-17T05:31:46.492Z,5.22
2018-03-17T05:34:17.035Z,7.37
2018-03-17T05:36:48.132Z,8.40
2018-03-17T05:39:19.106Z,11.75
2018-03-17T05:41:49.301Z,9.63
2018-03-17T05:44:19.406Z,7.57
2018-03-17T05:46:49.934Z,11.30
2018-03-17T05:49:23.381Z,7.47
2018-03-17T05:51:57.009Z,3.90
2018-03-17T05:54:27.179Z,5.05
2018-03-17T05:56:58.475Z,3.75
2018-03-17T05:59:36.262Z,3.37
2018-03-17T06:02:06.733Z,3.15
2018-03-17T06:04:37.570Z,3.95
2018-03-17T06:07:07.864Z,5.60
2018-03-17T06:09:46.807Z,4.57
2018-03-17T06:12:17.414Z,2.53
2018-03-17T06:18:24.151Z,7.45
2018-03-17T06:20:54.541Z,2.20
2018-03-17T06:23:24.750Z,3.70
2018-03-17T06:25:55.175Z,3.80
2018-03-17T06:28:25.679Z,3.10
2018-03-17T06:30:55.827Z,3.45
2018-03-17T06:33:26.306Z,3.28
2018-03-17T06:35:57.583Z,7.57
2018-03-17T06:38:27.742Z,7.57
2018-03-17T06:40:58.235Z,6.43
2018-03-17T06:43:29.357Z,5.30
2018-03-17T06:45:59.887Z,7.55
2018-03-17T06:48:30.073Z,8.27
2018-03-17T06:51:01.190Z,4.23
2018-03-17T06:53:31.452Z,4.87
2018-03-17T06:56:01.951Z,4.68
2018-03-17T06:58:32.723Z,3.65
2018-03-17T07:01:03.940Z,4.60
2018-03-17T07:03:35.413Z,4.32
2018-03-17T07:06:06.532Z,4.10
2018-03-17T07:08:37.715Z,4.57
2018-03-17T07:11:08.095Z,7.78
2018-03-17T07:13:38.671Z,7.18
2018-03-17T07:16:09.914Z,3.58
2018-03-17T07:18:43.767Z,5.20
2018-03-17T07:21:17.359Z,5.85
2018-03-17T07:23:53.750Z,3.72
2018-03-17T07:26:27.056Z,2.40
2018-03-17T07:29:09.463Z,4.72
2018-03-17T07:32:01.186Z,5.45
2018-03-17T07:34:31.754Z,6.55
2018-03-17T07:37:02.146Z,6.10
2018-03-17T07:39:35.902Z,4.62
2018-03-17T07:42:08.502Z,4.68
2018-03-17T07:44:39.513Z,6.70
2018-03-17T07:47:10.101Z,4.37
2018-03-17T07:49:42.419Z,6.60
2018-03-17T07:52:15.011Z,6.85
2018-03-17T07:54:45.958Z,5.70
2018-03-17T07:57:16.695Z,4.35
2018-03-17T07:59:47.954Z,6.55
2018-03-17T08:02:18.599Z,6.65
2018-03-17T08:04:49.751Z,6.30
2018-03-17T08:07:20.078Z,5.87
2018-03-17T08:09:53.915Z,7.10
2018-03-17T08:12:25.548Z,7.12
2018-03-17T08:14:56.081Z,8.93
2018-03-17T08:17:26.655Z,5.62
2018-03-17T08:19:58.421Z,6.67
2018-03-17T08:22:30.065Z,8.60
2018-03-17T08:25:02.652Z,7.50
2018-03-17T08:27:35.395Z,8.90
2018-03-17T08:30:08.710Z,8.27
2018-03-17T08:32:43.462Z,6.85
2018-03-17T08:35:15.106Z,7.03
2018-03-17T08:37:46.811Z,5.68
2018-03-17T08:40:17.627Z,4.80
2018-03-17T08:42:49.469Z,3.80
2018-03-17T08:45:19.946Z,5.00
2018-03-17T08:47:50.831Z,4.32
2018-03-17T08:50:22.083Z,3.00
2018-03-17T08:52:54.059Z,3.22
2018-03-17T08:55:25.583Z,3.55
2018-03-17T08:57:58.060Z,7.37
2018-03-17T09:00:28.547Z,4.60
2018-03-17T09:03:01.802Z,4.60
2018-03-17T09:05:35.454Z,5.20
2018-03-17T09:08:15.442Z,5.03
2018-03-17T09:10:46.940Z,3.83
2018-03-17T09:13:17.786Z,3.50
2018-03-17T09:15:50.413Z,4.72
2018-03-17T09:18:21.110Z,4.40
2018-03-17T09:20:52.853Z,3.80
2018-03-17T09:23:25.016Z,4.87
2018-03-17T09:25:57.736Z,3.20
2018-03-17T09:28:29.751Z,12.65
2018-03-17T09:31:03.385Z,4.00
2018-03-17T09:33:34.640Z,6.17
2018-03-17T09:36:07.995Z,5.50
2018-03-17T09:38:45.910Z,4.53
2018-03-17T09:41:19.104Z,3.97
2018-03-17T09:43:49.689Z,4.50
2018-03-17T09:46:20.326Z,4.90
2018-03-17T09:48:54.470Z,5.10
2018-03-17T09:51:25.238Z,4.97
2018-03-17T09:54:05.907Z,7.57
2018-03-17T09:56:42.654Z,7.40
2018-03-17T09:59:20.047Z,13.23
2018-03-17T10:01:51.509Z,9.00
2018-03-17T10:04:22.548Z,12.02
2018-03-17T10:06:53.964Z,9.23
2018-03-17T10:09:24.812Z,10.50
2018-03-17T10:11:57.098Z,9.63
2018-03-17T10:14:30.160Z,10.80
2018-03-17T10:17:08.610Z,11.12
2018-03-17T10:19:41.341Z,12.37
2018-03-17T10:22:15.143Z,13.05
2018-03-17T10:24:48.751Z,11.65
2018-03-17T10:27:26.452Z,12.80
2018-03-17T10:29:58.462Z,13.02
2018-03-17T10:32:33.614Z,11.63
2018-03-17T10:35:17.334Z,14.73
2018-03-17T10:37:49.195Z,15.98
2018-03-17T10:40:50.658Z,16.00
2018-03-17T10:43:24.214Z,13.63
2018-03-17T10:45:57.221Z,17.00
2018-03-17T10:48:31.894Z,15.57
2018-03-17T10:51:03.786Z,16.12
2018-03-17T10:53:36.295Z,16.20
2018-03-17T10:56:07.864Z,15.05
2018-03-17T10:58:38.944Z,17.65
2018-03-17T11:01:15.034Z,14.35
2018-03-17T11:03:48.465Z,13.73
2018-03-17T11:06:21.462Z,14.82
2018-03-17T11:08:57.178Z,13.68
2018-03-17T11:11:28.416Z,14.02
2018-03-17T11:17:36.095Z,15.85
2018-03-17T11:20:06.980Z,17.67
2018-03-17T11:22:43.215Z,17.70
2018-03-17T11:25:13.549Z,17.48
2018-03-17T11:27:45.020Z,18.10
2018-03-17T11:30:26.912Z,18.90
2018-03-17T11:33:23.582Z,19.00
2018-03-17T11:36:05.507Z,19.48
2018-03-17T11:38:38.264Z,17.17
2018-03-17T11:41:08.964Z,17.98
2018-03-17T11:44:02.071Z,20.40
2018-03-17T11:46:35.004Z,17.85
2018-03-17T11:49:12.292Z,24.10
2018-03-17T11:51:47.278Z,20.17
2018-03-17T11:54:18.266Z,17.77
2018-03-17T11:56:49.249Z,17.90
2018-03-17T11:59:20.674Z,19.00
2018-03-17T12:01:52.195Z,16.27
2018-03-17T12:04:27.538Z,18.27
2018-03-17T12:07:01.324Z,17.45
2018-03-17T12:09:43.203Z,19.67
2018-03-17T12:14:58.348Z,21.15
2018-03-17T12:17:42.271Z,19.92
2018-03-17T12:20:16.374Z,17.52
2018-03-17T12:22:53.287Z,17.60
2018-03-17T12:25:25.591Z,18.55
2018-03-17T12:28:10.621Z,16.98
2018-03-17T12:30:42.213Z,19.12
2018-03-17T12:33:13.984Z,18.98
2018-03-17T12:35:45.995Z,18.35
2018-03-17T12:38:17.070Z,20.62
2018-03-17T12:40:47.553Z,21.80
2018-03-17T12:43:19.571Z,17.75
2018-03-17T12:46:06.714Z,19.27
2018-03-17T12:48:43.301Z,22.45
2018-03-17T12:51:15.528Z,21.92
2018-03-17T12:53:47.703Z,21.98
2018-03-17T12:56:24.543Z,23.20
2018-03-17T12:59:17.205Z,21.50
2018-03-17T13:01:48.839Z,20.37
2018-03-17T13:04:23.661Z,22.77
2018-03-17T13:06:56.614Z,23.45
2018-03-17T13:09:27.571Z,21.83
2018-03-17T13:12:41.864Z,25.00
2018-03-17T13:15:14.077Z,24.87
2018-03-17T13:17:44.864Z,26.42
2018-03-17T13:20:16.175Z,24.20
2018-03-17T13:22:55.104Z,27.13
2018-03-17T13:25:28.192Z,23.05
2018-03-17T13:29:02.111Z,27.33
2018-03-17T13:32:05.267Z,25.70
2018-03-17T13:35:04.177Z,25.17
2018-03-17T13:37:48.404Z,26.70
2018-03-17T13:40:29.446Z,25.15
2018-03-17T13:43:01.629Z,24.75
2018-03-17T13:45:33.041Z,23.48
2018-03-17T13:48:09.294Z,28.60
2018-03-17T13:51:00.346Z,29.25
2018-03-17T13:53:57.067Z,26.55
2018-03-17T13:56:40.498Z,27.52
2018-03-17T13:59:13.920Z,26.95
2018-03-17T14:01:51.617Z,29.63
2018-03-17T14:04:27.100Z,25.90
2018-03-17T14:07:02.023Z,25.87
2018-03-17T14:09:33.856Z,29.75
2018-03-17T14:12:05.282Z,29.10
2018-03-17T14:15:31.517Z,28.70
2018-03-17T14:18:14.121Z,30.40
2018-03-17T14:20:45.056Z,31.55
2018-03-17T14:23:16.210Z,32.58
2018-03-17T14:25:47.820Z,30.15
2018-03-17T14:28:19.037Z,33.00
2018-03-17T14:30:52.433Z,33.60
2018-03-17T14:33:59.854Z,33.75
2018-03-17T14:36:31.424Z,34.20
2018-03-17T14:39:08.434Z,34.30
2018-03-17T14:41:39.531Z,31.27
2018-03-17T14:45:29.726Z,40.33
2018-03-17T14:48:02.019Z,36.50
2018-03-17T14:50:38.722Z,34.10
2018-03-17T14:53:11.192Z,38.47
2018-03-17T14:55:43.257Z,39.13
2018-03-17T14:58:15.427Z,37.50
2018-03-17T15:00:49.896Z,36.90
2018-03-17T15:03:21.966Z,41.20
2018-03-17T15:06:03.234Z,40.58
2018-03-17T15:08:48.486Z,37.80
2018-03-17T15:11:52.077Z,37.45
2018-03-17T15:14:47.037Z,41.03
2018-03-17T15:17:31.606Z,40.47
2018-03-17T15:20:07.236Z,41.92
2018-03-17T15:22:44.757Z,42.42
2018-03-17T15:25:36.181Z,40.80
2018-03-17T15:28:11.184Z,45.30
2018-03-17T15:30:46.476Z,43.10
2018-03-17T15:33:20.056Z,43.42
2018-03-17T15:35:56.822Z,47.22
2018-03-17T15:38:33.761Z,46.13
2018-03-17T15:41:08.936Z,41.80
2018-03-17T15:43:44.737Z,45.08
2018-03-17T15:46:18.091Z,41.17
2018-03-17T15:49:09.676Z,42.30
2018-03-17T15:51:50.144Z,47.47
2018-03-17T15:54:23.113Z,42.90
2018-03-17T15:56:55.893Z,44.13
2018-03-17T15:59:31.601Z,44.35
2018-03-17T16:02:12.195Z,42.62
2018-03-17T16:04:48.179Z,44.78
2018-03-17T16:07:19.868Z,42.08
2018-03-17T16:09:51.263Z,39.67
2018-03-17T16:12:21.608Z,45.83
2018-03-17T16:14:57.547Z,44.95
2018-03-17T16:17:34.537Z,44.65
2018-03-17T16:20:27.263Z,43.20
2018-03-17T16:23:20.464Z,45.10
2018-03-17T16:26:19.521Z,41.90
2018-03-17T16:28:51.402Z,40.30
2018-03-17T16:31:23.929Z,41.20
2018-03-17T16:34:16.578Z,45.88
2018-03-17T16:36:49.991Z,47.80
2018-03-17T16:51:22.337Z,40.80
2018-03-17T16:53:53.779Z,44.00
2018-03-17T16:56:25.550Z,46.88
2018-03-17T16:58:56.125Z,40.95
2018-03-17T17:01:26.428Z,42.90
2018-03-17T17:03:57.553Z,42.25
2018-03-17T17:06:28.610Z,41.88
2018-03-17T17:08:58.884Z,43.95
2018-03-17T17:11:31.730Z,43.08
2018-03-17T17:14:02.846Z,43.20
2018-03-17T17:16:34.493Z,40.35
2018-03-17T17:19:11.150Z,44.95
2018-03-17T17:21:42.059Z,44.70
2018-03-17T17:24:13.430Z,44.65
2018-03-17T17:26:44.820Z,45.05
2018-03-17T17:29:16.179Z,45.95
2018-03-17T17:31:47.644Z,47.30
2018-03-17T17:34:19.432Z,44.40
2018-03-17T17:36:50.594Z,43.10
2018-03-17T17:39:21.248Z,41.50
2018-03-17T17:41:55.132Z,42.93
2018-03-17T17:44:38.223Z,50.05
2018-03-17T17:47:17.471Z,44.30
2018-03-17T17:49:58.161Z,43.78
2018-03-17T17:52:36.710Z,45.85
2018-03-17T17:55:16.111Z,47.13
2018-03-17T17:57:48.357Z,46.00
2018-03-17T18:00:38.950Z,43.35
2018-03-17T18:03:11.346Z,43.28
2018-03-17T18:05:42.456Z,43.92
2018-03-17T18:08:14.181Z,47.00
2018-03-17T18:10:47.078Z,47.45
2018-03-17T18:13:29.076Z,42.65
2018-03-17T18:16:00.627Z,47.88
2018-03-17T18:18:31.982Z,44.95
2018-03-17T18:21:44.224Z,46.08
2018-03-17T18:24:17.171Z,48.28
2018-03-17T18:26:49.299Z,43.72
2018-03-17T18:29:21.825Z,42.62
2018-03-17T18:31:52.870Z,40.22
2018-03-17T18:34:24.307Z,42.83
2018-03-17T18:36:55.899Z,40.60
2018-03-17T18:39:27.997Z,44.67
2018-03-17T18:42:00.335Z,45.77
2018-03-17T18:44:31.666Z,41.15
2018-03-17T18:47:08.878Z,43.80
2018-03-17T18:49:42.037Z,40.55
2018-03-17T18:52:12.713Z,41.15
2018-03-17T18:54:45.467Z,42.83
2018-03-17T18:57:18.937Z,45.53
2018-03-17T18:59:50.638Z,42.33
2018-03-17T19:02:25.511Z,43.95
2018-03-17T19:05:00.789Z,39.25
2018-03-17T19:07:32.971Z,41.70
2018-03-17T19:10:05.116Z,41.20
2018-03-17T19:12:37.821Z,42.30
2018-03-17T19:15:09.437Z,42.22
2018-03-17T19:17:40.692Z,40.97
2018-03-17T19:20:11.138Z,40.90
2018-03-17T19:22:46.134Z,37.70
2018-03-17T19:25:18.094Z,41.37
2018-03-17T19:27:48.568Z,41.00
2018-03-17T19:30:18.788Z,41.63
2018-03-17T19:32:51.728Z,39.80
2018-03-17T19:38:16.701Z,38.20
2018-03-17T19:40:47.448Z,39.05
2018-03-17T19:43:18.195Z,40.27
2018-03-17T19:45:49.219Z,41.37
2018-03-17T19:48:19.862Z,38.75
2018-03-17T19:50:50.288Z,41.20
2018-03-17T19:53:21.003Z,38.63
2018-03-17T19:55:51.560Z,40.70
2018-03-17T19:58:22.925Z,39.53
2018-03-17T20:00:54.059Z,38.30
2018-03-17T20:03:25.835Z,38.35
2018-03-17T20:05:57.126Z,37.83
2018-03-17T20:08:29.233Z,44.97
2018-03-17T20:11:24.157Z,37.28
2018-03-17T20:13:56.317Z,39.10
2018-03-17T20:16:26.930Z,38.30
2018-03-17T20:18:58.463Z,38.75
2018-03-17T20:21:30.505Z,41.67
2018-03-17T20:24:04.375Z,39.97
2018-03-17T20:26:35.723Z,37.15
2018-03-17T20:29:08.433Z,37.10
2018-03-17T20:31:43.898Z,39.72
2018-03-17T20:34:18.886Z,39.08
2018-03-17T20:36:52.173Z,38.13
2018-03-17T20:39:22.701Z,38.60
2018-03-17T20:41:52.882Z,39.33
2018-03-17T20:44:25.025Z,42.53
2018-03-17T20:46:55.651Z,38.30
2018-03-17T20:49:26.059Z,51.55
2018-03-17T20:51:57.392Z,40.78
2018-03-17T20:54:32.216Z,41.75
2018-03-17T20:57:03.650Z,38.70
2018-03-17T20:59:35.183Z,43.95
2018-03-17T21:02:06.286Z,41.17
2018-03-17T21:04:37.132Z,38.13
2018-03-17T21:07:08.632Z,41.25
2018-03-17T21:09:43.428Z,34.53
2018-03-17T21:12:16.266Z,40.70
2018-03-17T21:14:46.745Z,39.90
2018-03-17T21:17:17.125Z,40.88
2018-03-17T21:19:48.176Z,40.07
2018-03-17T21:22:20.803Z,38.15
2018-03-17T21:24:53.222Z,36.85
2018-03-17T21:27:26.515Z,35.03
2018-03-17T21:29:59.208Z,36.92
2018-03-17T21:32:35.440Z,36.40
2018-03-17T21:35:15.621Z,33.88
2018-03-17T21:37:47.996Z,37.38
2018-03-17T21:40:29.159Z,39.72
2018-03-17T21:43:00.313Z,34.90
2018-03-17T21:45:31.508Z,36.38
2018-03-17T21:48:02.955Z,36.80
2018-03-17T21:50:34.180Z,35.40
2018-03-17T21:53:07.026Z,38.22
2018-03-17T21:55:39.323Z,34.90
2018-03-17T21:58:11.605Z,38.30
2018-03-17T22:00:42.326Z,33.17
2018-03-17T22:03:12.906Z,33.95
2018-03-17T22:05:43.618Z,36.25
2018-03-17T22:08:13.774Z,33.37
2018-03-17T22:10:44.227Z,35.85
2018-03-17T22:13:16.031Z,35.05
2018-03-17T22:15:46.200Z,36.58
2018-03-17T22:18:17.534Z,31.05
2018-03-17T22:20:51.807Z,33.58
2018-03-17T22:23:22.582Z,35.35
2018-03-17T22:25:53.279Z,33.57
2018-03-17T22:28:25.335Z,31.70
2018-03-17T22:30:56.127Z,36.30
2018-03-17T22:33:26.299Z,36.45
2018-03-17T22:35:57.484Z,32.85
2018-03-17T22:38:28.366Z,34.38
2018-03-17T22:40:59.004Z,39.25
2018-03-17T22:43:29.917Z,34.33
2018-03-17T22:46:01.207Z,37.22
2018-03-17T22:48:31.828Z,35.95
2018-03-17T22:51:02.374Z,33.10
2018-03-17T22:53:32.756Z,33.20
2018-03-17T22:56:03.810Z,37.20
2018-03-17T22:58:33.949Z,35.92
2018-03-17T23:01:05.514Z,33.75
2018-03-17T23:03:37.202Z,33.85
2018-03-17T23:06:07.769Z,36.37
2018-03-17T23:08:39.029Z,35.53
2018-03-17T23:11:09.380Z,36.58
2018-03-17T23:13:39.984Z,35.58
2018-03-17T23:16:10.769Z,35.83
2018-03-17T23:18:41.664Z,39.67
2018-03-17T23:21:13.146Z,36.17
2018-03-17T23:23:44.422Z,36.65
2018-03-17T23:26:17.586Z,33.28
2018-03-17T23:28:48.562Z,33.25
2018-03-17T23:31:19.278Z,39.25
2018-03-17T23:33:49.508Z,38.80
2018-03-17T23:36:20.893Z,37.08
2018-03-17T23:38:52.382Z,38.75
2018-03-17T23:42:07.808Z,37.60
2018-03-17T23:45:02.871Z,37.30
2018-03-17T23:47:36.441Z,35.88
2018-03-17T23:50:07.380Z,36.70
2018-03-17T23:52:38.444Z,37.60
2018-03-17T23:55:09.147Z,39.63
2018-03-17T23:57:56.817Z,36.30
